sensor_id;sensor_type;location;lat;lon;timestamp;P1;durP1;ratioP1;P2;durP2;ratioP2
74471;SDS011;62920;53.572;10.050;2023-02-28T00:01:17;9.48;;;2.20;;
74471;SDS011;62920;53.572;10.050;2023-02-28T00:03:42;6.40;;;1.90;;
74471;SDS011;62920;53.572;10.050;2023-02-28T00:06:08;5.00;;;1.90;;
74471;SDS011;62920;53.572;10.050;2023-02-28T00:08:34;7.45;;;2.30;;
74471;SDS011;62920;53.572;10.050;2023-02-28T00:11:04;6.88;;;2.20;;
74471;SDS011;62920;53.572;10.050;2023-02-28T00:13:31;6.38;;;1.95;;
74471;SDS011;62920;53.572;10.050;2023-02-28T00:16:00;4.57;;;2.03;;
74471;SDS011;62920;53.572;10.050;2023-02-28T00:18:26;3.92;;;1.92;;
74471;SDS011;62920;53.572;10.050;2023-02-28T00:20:51;6.80;;;1.90;;
74471;SDS011;62920;53.572;10.050;2023-02-28T00:23:16;4.57;;;1.92;;
74471;SDS011;62920;53.572;10.050;2023-02-28T00:25:42;6.13;;;1.90;;
74471;SDS011;62920;53.572;10.050;2023-02-28T00:28:07;3.08;;;1.42;;
74471;SDS011;62920;53.572;10.050;2023-02-28T00:30:32;7.35;;;1.65;;
74471;SDS011;62920;53.572;10.050;2023-02-28T00:32:58;4.90;;;2.00;;
74471;SDS011;62920;53.572;10.050;2023-02-28T00:35:24;10.50;;;2.10;;
74471;SDS011;62920;53.572;10.050;2023-02-28T00:37:49;6.18;;;2.17;;
74471;SDS011;62920;53.572;10.050;2023-02-28T00:40:15;5.28;;;1.90;;
74471;SDS011;62920;53.572;10.050;2023-02-28T00:42:41;4.85;;;1.75;;
74471;SDS011;62920;53.572;10.050;2023-02-28T00:45:06;7.10;;;1.77;;
74471;SDS011;62920;53.572;10.050;2023-02-28T00:47:33;6.32;;;1.50;;
74471;SDS011;62920;53.572;10.050;2023-02-28T00:49:58;5.25;;;1.58;;
74471;SDS011;62920;53.572;10.050;2023-02-28T00:52:24;6.72;;;2.08;;
74471;SDS011;62920;53.572;10.050;2023-02-28T00:54:50;4.90;;;1.63;;
74471;SDS011;62920;53.572;10.050;2023-02-28T00:57:15;5.20;;;1.77;;
74471;SDS011;62920;53.572;10.050;2023-02-28T00:59:43;4.88;;;2.30;;
74471;SDS011;62920;53.572;10.050;2023-02-28T01:02:08;5.43;;;2.50;;
74471;SDS011;62920;53.572;10.050;2023-02-28T01:04:34;3.97;;;1.75;;
74471;SDS011;62920;53.572;10.050;2023-02-28T01:07:00;6.25;;;1.70;;
74471;SDS011;62920;53.572;10.050;2023-02-28T01:09:26;6.38;;;1.75;;
74471;SDS011;62920;53.572;10.050;2023-02-28T01:11:51;5.40;;;1.88;;
74471;SDS011;62920;53.572;10.050;2023-02-28T01:14:17;4.03;;;1.83;;
74471;SDS011;62920;53.572;10.050;2023-02-28T01:16:43;5.45;;;1.80;;
74471;SDS011;62920;53.572;10.050;2023-02-28T01:19:08;8.32;;;1.67;;
74471;SDS011;62920;53.572;10.050;2023-02-28T01:21:34;4.78;;;1.63;;
74471;SDS011;62920;53.572;10.050;2023-02-28T01:24:00;4.63;;;1.70;;
74471;SDS011;62920;53.572;10.050;2023-02-28T01:26:25;4.20;;;1.55;;
74471;SDS011;62920;53.572;10.050;2023-02-28T01:28:51;6.05;;;2.08;;
74471;SDS011;62920;53.572;10.050;2023-02-28T01:31:17;4.93;;;1.90;;
74471;SDS011;62920;53.572;10.050;2023-02-28T01:33:44;3.55;;;1.33;;
74471;SDS011;62920;53.572;10.050;2023-02-28T01:36:14;7.95;;;1.75;;
74471;SDS011;62920;53.572;10.050;2023-02-28T01:38:43;7.95;;;1.58;;
74471;SDS011;62920;53.572;10.050;2023-02-28T01:41:12;4.85;;;1.60;;
74471;SDS011;62920;53.572;10.050;2023-02-28T01:44:07;5.40;;;2.00;;
74471;SDS011;62920;53.572;10.050;2023-02-28T01:46:52;5.97;;;2.42;;
74471;SDS011;62920;53.572;10.050;2023-02-28T01:49:18;5.18;;;2.08;;
74471;SDS011;62920;53.572;10.050;2023-02-28T01:51:44;6.50;;;2.45;;
74471;SDS011;62920;53.572;10.050;2023-02-28T01:54:29;6.22;;;2.10;;
74471;SDS011;62920;53.572;10.050;2023-02-28T01:57:19;7.80;;;2.17;;
74471;SDS011;62920;53.572;10.050;2023-02-28T01:59:47;4.72;;;1.90;;
74471;SDS011;62920;53.572;10.050;2023-02-28T02:02:16;5.70;;;2.28;;
74471;SDS011;62920;53.572;10.050;2023-02-28T02:04:49;5.95;;;1.75;;
74471;SDS011;62920;53.572;10.050;2023-02-28T02:07:22;6.53;;;2.53;;
74471;SDS011;62920;53.572;10.050;2023-02-28T02:09:48;8.32;;;2.00;;
74471;SDS011;62920;53.572;10.050;2023-02-28T02:12:26;4.55;;;1.92;;
74471;SDS011;62920;53.572;10.050;2023-02-28T02:15:18;7.03;;;2.53;;
74471;SDS011;62920;53.572;10.050;2023-02-28T02:17:50;4.90;;;2.28;;
74471;SDS011;62920;53.572;10.050;2023-02-28T02:25:58;6.50;;;2.17;;
74471;SDS011;62920;53.572;10.050;2023-02-28T02:29:05;6.32;;;2.28;;
74471;SDS011;62920;53.572;10.050;2023-02-28T02:37:30;4.72;;;2.30;;
74471;SDS011;62920;53.572;10.050;2023-02-28T02:45:10;8.35;;;2.58;;
74471;SDS011;62920;53.572;10.050;2023-02-28T02:47:41;5.55;;;2.15;;
74471;SDS011;62920;53.572;10.050;2023-02-28T02:50:08;4.70;;;2.03;;
74471;SDS011;62920;53.572;10.050;2023-02-28T02:52:39;6.28;;;2.42;;
74471;SDS011;62920;53.572;10.050;2023-02-28T02:55:08;6.57;;;2.30;;
74471;SDS011;62920;53.572;10.050;2023-02-28T02:57:37;7.20;;;2.38;;
74471;SDS011;62920;53.572;10.050;2023-02-28T03:00:05;8.45;;;2.60;;
74471;SDS011;62920;53.572;10.050;2023-02-28T03:02:35;6.20;;;2.30;;
74471;SDS011;62920;53.572;10.050;2023-02-28T03:05:04;5.10;;;2.28;;
74471;SDS011;62920;53.572;10.050;2023-02-28T03:07:33;5.50;;;2.88;;
74471;SDS011;62920;53.572;10.050;2023-02-28T03:09:58;5.57;;;2.35;;
74471;SDS011;62920;53.572;10.050;2023-02-28T03:12:27;6.70;;;2.60;;
74471;SDS011;62920;53.572;10.050;2023-02-28T03:15:13;7.35;;;2.85;;
74471;SDS011;62920;53.572;10.050;2023-02-28T03:17:47;7.13;;;2.30;;
74471;SDS011;62920;53.572;10.050;2023-02-28T03:28:56;6.38;;;2.70;;
74471;SDS011;62920;53.572;10.050;2023-02-28T03:31:39;10.38;;;2.80;;
74471;SDS011;62920;53.572;10.050;2023-02-28T03:36:52;6.20;;;2.92;;
74471;SDS011;62920;53.572;10.050;2023-02-28T03:39:20;7.13;;;2.58;;
74471;SDS011;62920;53.572;10.050;2023-02-28T03:41:50;6.93;;;2.95;;
74471;SDS011;62920;53.572;10.050;2023-02-28T03:44:35;5.18;;;2.58;;
74471;SDS011;62920;53.572;10.050;2023-02-28T03:47:10;5.65;;;2.83;;
74471;SDS011;62920;53.572;10.050;2023-02-28T03:49:42;6.07;;;2.70;;
74471;SDS011;62920;53.572;10.050;2023-02-28T03:52:10;8.45;;;3.53;;
74471;SDS011;62920;53.572;10.050;2023-02-28T03:54:38;7.60;;;3.03;;
74471;SDS011;62920;53.572;10.050;2023-02-28T03:59:43;9.73;;;2.70;;
74471;SDS011;62920;53.572;10.050;2023-02-28T04:02:10;6.68;;;2.58;;
74471;SDS011;62920;53.572;10.050;2023-02-28T04:04:35;8.95;;;3.72;;
74471;SDS011;62920;53.572;10.050;2023-02-28T04:07:08;8.63;;;3.38;;
74471;SDS011;62920;53.572;10.050;2023-02-28T04:09:34;7.47;;;3.50;;
74471;SDS011;62920;53.572;10.050;2023-02-28T04:11:59;10.13;;;3.63;;
74471;SDS011;62920;53.572;10.050;2023-02-28T04:14:25;6.40;;;3.35;;
74471;SDS011;62920;53.572;10.050;2023-02-28T04:16:50;6.45;;;3.20;;
74471;SDS011;62920;53.572;10.050;2023-02-28T04:19:16;10.23;;;3.50;;
74471;SDS011;62920;53.572;10.050;2023-02-28T04:21:45;6.57;;;3.05;;
74471;SDS011;62920;53.572;10.050;2023-02-28T04:24:13;8.35;;;3.78;;
74471;SDS011;62920;53.572;10.050;2023-02-28T04:26:46;7.97;;;3.13;;
74471;SDS011;62920;53.572;10.050;2023-02-28T04:29:13;7.00;;;2.90;;
74471;SDS011;62920;53.572;10.050;2023-02-28T04:31:42;6.88;;;2.97;;
74471;SDS011;62920;53.572;10.050;2023-02-28T04:34:07;9.32;;;3.22;;
74471;SDS011;62920;53.572;10.050;2023-02-28T04:36:33;7.05;;;3.13;;
74471;SDS011;62920;53.572;10.050;2023-02-28T04:38:58;6.97;;;3.33;;
74471;SDS011;62920;53.572;10.050;2023-02-28T04:41:23;10.77;;;3.67;;
74471;SDS011;62920;53.572;10.050;2023-02-28T04:43:50;6.57;;;2.92;;
74471;SDS011;62920;53.572;10.050;2023-02-28T04:46:16;6.97;;;3.63;;
74471;SDS011;62920;53.572;10.050;2023-02-28T04:48:42;8.68;;;3.63;;
74471;SDS011;62920;53.572;10.050;2023-02-28T04:51:09;10.90;;;3.80;;
74471;SDS011;62920;53.572;10.050;2023-02-28T04:53:37;9.35;;;4.07;;
74471;SDS011;62920;53.572;10.050;2023-02-28T04:56:03;9.20;;;4.03;;
74471;SDS011;62920;53.572;10.050;2023-02-28T04:58:29;8.35;;;3.38;;
74471;SDS011;62920;53.572;10.050;2023-02-28T05:01:01;6.88;;;3.40;;
74471;SDS011;62920;53.572;10.050;2023-02-28T05:03:39;7.82;;;3.88;;
74471;SDS011;62920;53.572;10.050;2023-02-28T05:06:11;7.60;;;3.20;;
74471;SDS011;62920;53.572;10.050;2023-02-28T05:08:37;8.68;;;3.63;;
74471;SDS011;62920;53.572;10.050;2023-02-28T05:11:03;8.13;;;3.15;;
74471;SDS011;62920;53.572;10.050;2023-02-28T05:13:30;7.10;;;3.35;;
74471;SDS011;62920;53.572;10.050;2023-02-28T05:15:56;10.18;;;3.92;;
74471;SDS011;62920;53.572;10.050;2023-02-28T05:18:21;7.32;;;3.47;;
74471;SDS011;62920;53.572;10.050;2023-02-28T05:20:47;7.90;;;3.90;;
74471;SDS011;62920;53.572;10.050;2023-02-28T05:23:12;10.23;;;4.20;;
74471;SDS011;62920;53.572;10.050;2023-02-28T05:25:39;7.30;;;3.58;;
74471;SDS011;62920;53.572;10.050;2023-02-28T05:28:04;10.77;;;4.20;;
74471;SDS011;62920;53.572;10.050;2023-02-28T05:30:30;8.38;;;3.40;;
74471;SDS011;62920;53.572;10.050;2023-02-28T05:32:58;9.00;;;3.58;;
74471;SDS011;62920;53.572;10.050;2023-02-28T05:35:24;7.70;;;3.50;;
74471;SDS011;62920;53.572;10.050;2023-02-28T05:37:50;9.88;;;3.95;;
74471;SDS011;62920;53.572;10.050;2023-02-28T05:40:16;8.40;;;4.03;;
74471;SDS011;62920;53.572;10.050;2023-02-28T05:42:42;9.60;;;4.43;;
74471;SDS011;62920;53.572;10.050;2023-02-28T05:45:07;11.07;;;4.10;;
74471;SDS011;62920;53.572;10.050;2023-02-28T05:47:34;8.98;;;4.15;;
74471;SDS011;62920;53.572;10.050;2023-02-28T05:49:59;8.23;;;3.95;;
74471;SDS011;62920;53.572;10.050;2023-02-28T05:52:26;7.35;;;3.97;;
74471;SDS011;62920;53.572;10.050;2023-02-28T05:54:52;11.80;;;3.72;;
74471;SDS011;62920;53.572;10.050;2023-02-28T05:57:17;9.95;;;3.58;;
74471;SDS011;62920;53.572;10.050;2023-02-28T05:59:43;10.57;;;4.10;;
74471;SDS011;62920;53.572;10.050;2023-02-28T06:02:10;8.10;;;4.05;;
74471;SDS011;62920;53.572;10.050;2023-02-28T06:04:38;9.95;;;3.78;;
74471;SDS011;62920;53.572;10.050;2023-02-28T06:07:03;7.45;;;4.00;;
74471;SDS011;62920;53.572;10.050;2023-02-28T06:09:28;9.68;;;4.30;;
74471;SDS011;62920;53.572;10.050;2023-02-28T06:11:54;11.02;;;3.55;;
74471;SDS011;62920;53.572;10.050;2023-02-28T06:14:20;10.73;;;4.97;;
74471;SDS011;62920;53.572;10.050;2023-02-28T06:16:46;10.98;;;4.50;;
74471;SDS011;62920;53.572;10.050;2023-02-28T06:19:11;9.73;;;4.10;;
74471;SDS011;62920;53.572;10.050;2023-02-28T06:21:37;13.88;;;4.68;;
74471;SDS011;62920;53.572;10.050;2023-02-28T06:24:03;8.90;;;4.35;;
74471;SDS011;62920;53.572;10.050;2023-02-28T06:26:29;10.98;;;4.10;;
74471;SDS011;62920;53.572;10.050;2023-02-28T06:28:55;7.65;;;3.47;;
74471;SDS011;62920;53.572;10.050;2023-02-28T06:31:21;9.77;;;3.90;;
74471;SDS011;62920;53.572;10.050;2023-02-28T06:33:47;12.45;;;4.50;;
74471;SDS011;62920;53.572;10.050;2023-02-28T06:36:13;10.82;;;4.50;;
74471;SDS011;62920;53.572;10.050;2023-02-28T06:38:39;10.73;;;4.13;;
74471;SDS011;62920;53.572;10.050;2023-02-28T06:41:06;6.68;;;4.18;;
74471;SDS011;62920;53.572;10.050;2023-02-28T06:43:33;11.13;;;3.95;;
74471;SDS011;62920;53.572;10.050;2023-02-28T06:46:01;7.90;;;3.72;;
74471;SDS011;62920;53.572;10.050;2023-02-28T06:48:28;6.30;;;3.88;;
74471;SDS011;62920;53.572;10.050;2023-02-28T06:51:04;11.63;;;4.55;;
74471;SDS011;62920;53.572;10.050;2023-02-28T06:53:31;8.85;;;4.18;;
74471;SDS011;62920;53.572;10.050;2023-02-28T06:55:56;9.38;;;3.97;;
74471;SDS011;62920;53.572;10.050;2023-02-28T06:58:22;13.68;;;4.95;;
74471;SDS011;62920;53.572;10.050;2023-02-28T07:00:49;9.10;;;3.95;;
74471;SDS011;62920;53.572;10.050;2023-02-28T07:03:16;18.38;;;4.70;;
74471;SDS011;62920;53.572;10.050;2023-02-28T07:05:42;10.75;;;3.50;;
74471;SDS011;62920;53.572;10.050;2023-02-28T07:08:07;9.80;;;4.20;;
74471;SDS011;62920;53.572;10.050;2023-02-28T07:10:33;7.78;;;4.20;;
74471;SDS011;62920;53.572;10.050;2023-02-28T07:12:59;11.98;;;4.40;;
74471;SDS011;62920;53.572;10.050;2023-02-28T07:15:24;12.05;;;4.95;;
74471;SDS011;62920;53.572;10.050;2023-02-28T07:17:50;16.92;;;4.65;;
74471;SDS011;62920;53.572;10.050;2023-02-28T07:20:15;14.90;;;4.95;;
74471;SDS011;62920;53.572;10.050;2023-02-28T07:22:41;10.13;;;4.78;;
74471;SDS011;62920;53.572;10.050;2023-02-28T07:25:07;9.93;;;4.22;;
74471;SDS011;62920;53.572;10.050;2023-02-28T07:27:33;8.77;;;4.28;;
74471;SDS011;62920;53.572;10.050;2023-02-28T07:29:59;10.25;;;4.35;;
74471;SDS011;62920;53.572;10.050;2023-02-28T07:32:26;9.98;;;4.68;;
74471;SDS011;62920;53.572;10.050;2023-02-28T07:34:52;11.00;;;3.65;;
74471;SDS011;62920;53.572;10.050;2023-02-28T07:37:18;8.93;;;3.83;;
74471;SDS011;62920;53.572;10.050;2023-02-28T07:39:43;9.88;;;4.32;;
74471;SDS011;62920;53.572;10.050;2023-02-28T07:42:08;7.22;;;4.47;;
74471;SDS011;62920;53.572;10.050;2023-02-28T07:44:36;11.25;;;5.13;;
74471;SDS011;62920;53.572;10.050;2023-02-28T07:47:05;10.25;;;4.85;;
74471;SDS011;62920;53.572;10.050;2023-02-28T07:49:35;14.02;;;5.45;;
74471;SDS011;62920;53.572;10.050;2023-02-28T07:52:01;9.55;;;5.10;;
74471;SDS011;62920;53.572;10.050;2023-02-28T07:54:27;11.75;;;5.57;;
74471;SDS011;62920;53.572;10.050;2023-02-28T07:56:53;11.45;;;5.32;;
74471;SDS011;62920;53.572;10.050;2023-02-28T07:59:18;12.90;;;5.22;;
74471;SDS011;62920;53.572;10.050;2023-02-28T08:01:43;9.40;;;4.95;;
74471;SDS011;62920;53.572;10.050;2023-02-28T08:04:09;10.57;;;4.90;;
74471;SDS011;62920;53.572;10.050;2023-02-28T08:06:36;11.80;;;4.90;;
74471;SDS011;62920;53.572;10.050;2023-02-28T08:09:01;9.65;;;4.75;;
74471;SDS011;62920;53.572;10.050;2023-02-28T08:11:27;8.50;;;4.22;;
74471;SDS011;62920;53.572;10.050;2023-02-28T08:13:52;9.32;;;4.10;;
74471;SDS011;62920;53.572;10.050;2023-02-28T08:16:18;8.90;;;4.50;;
74471;SDS011;62920;53.572;10.050;2023-02-28T08:18:47;13.68;;;5.20;;
74471;SDS011;62920;53.572;10.050;2023-02-28T08:21:13;15.38;;;4.63;;
74471;SDS011;62920;53.572;10.050;2023-02-28T08:23:39;13.23;;;4.57;;
74471;SDS011;62920;53.572;10.050;2023-02-28T08:26:04;10.98;;;5.00;;
74471;SDS011;62920;53.572;10.050;2023-02-28T08:28:30;11.05;;;4.80;;
74471;SDS011;62920;53.572;10.050;2023-02-28T08:30:55;10.45;;;4.78;;
74471;SDS011;62920;53.572;10.050;2023-02-28T08:33:21;12.05;;;5.00;;
74471;SDS011;62920;53.572;10.050;2023-02-28T08:35:47;13.93;;;5.45;;
74471;SDS011;62920;53.572;10.050;2023-02-28T08:38:13;17.52;;;5.45;;
74471;SDS011;62920;53.572;10.050;2023-02-28T08:40:38;13.23;;;5.55;;
74471;SDS011;62920;53.572;10.050;2023-02-28T08:43:03;13.95;;;6.28;;
74471;SDS011;62920;53.572;10.050;2023-02-28T08:45:29;9.88;;;4.07;;
74471;SDS011;62920;53.572;10.050;2023-02-28T08:47:54;10.25;;;4.82;;
74471;SDS011;62920;53.572;10.050;2023-02-28T08:50:20;11.88;;;4.85;;
74471;SDS011;62920;53.572;10.050;2023-02-28T08:52:46;13.55;;;5.10;;
74471;SDS011;62920;53.572;10.050;2023-02-28T08:55:11;14.40;;;4.80;;
74471;SDS011;62920;53.572;10.050;2023-02-28T08:57:37;12.57;;;5.00;;
74471;SDS011;62920;53.572;10.050;2023-02-28T09:00:03;9.77;;;4.70;;
74471;SDS011;62920;53.572;10.050;2023-02-28T09:02:29;9.80;;;4.80;;
74471;SDS011;62920;53.572;10.050;2023-02-28T09:04:56;9.30;;;4.53;;
74471;SDS011;62920;53.572;10.050;2023-02-28T09:07:22;13.15;;;5.38;;
74471;SDS011;62920;53.572;10.050;2023-02-28T09:09:48;11.93;;;4.03;;
74471;SDS011;62920;53.572;10.050;2023-02-28T09:12:23;9.40;;;4.28;;
74471;SDS011;62920;53.572;10.050;2023-02-28T09:14:49;9.00;;;4.00;;
74471;SDS011;62920;53.572;10.050;2023-02-28T09:17:15;7.95;;;4.40;;
74471;SDS011;62920;53.572;10.050;2023-02-28T09:19:41;11.40;;;4.60;;
74471;SDS011;62920;53.572;10.050;2023-02-28T09:22:07;8.00;;;3.92;;
74471;SDS011;62920;53.572;10.050;2023-02-28T09:24:33;10.00;;;3.88;;
74471;SDS011;62920;53.572;10.050;2023-02-28T09:26:58;10.15;;;4.28;;
74471;SDS011;62920;53.572;10.050;2023-02-28T09:29:24;10.70;;;3.83;;
74471;SDS011;62920;53.572;10.050;2023-02-28T09:31:49;10.15;;;3.65;;
74471;SDS011;62920;53.572;10.050;2023-02-28T09:34:15;9.85;;;3.47;;
74471;SDS011;62920;53.572;10.050;2023-02-28T09:36:44;8.60;;;3.95;;
74471;SDS011;62920;53.572;10.050;2023-02-28T09:39:10;7.63;;;2.63;;
74471;SDS011;62920;53.572;10.050;2023-02-28T09:41:40;3.45;;;2.00;;
74471;SDS011;62920;53.572;10.050;2023-02-28T09:44:16;4.38;;;2.00;;
74471;SDS011;62920;53.572;10.050;2023-02-28T09:46:46;4.32;;;1.02;;
74471;SDS011;62920;53.572;10.050;2023-02-28T09:49:16;2.10;;;1.05;;
74471;SDS011;62920;53.572;10.050;2023-02-28T09:51:45;3.75;;;0.80;;
74471;SDS011;62920;53.572;10.050;2023-02-28T09:54:20;4.90;;;1.27;;
74471;SDS011;62920;53.572;10.050;2023-02-28T09:56:52;3.88;;;1.20;;
74471;SDS011;62920;53.572;10.050;2023-02-28T10:10:21;5.78;;;1.88;;
74471;SDS011;62920;53.572;10.050;2023-02-28T10:12:51;4.03;;;1.58;;
74471;SDS011;62920;53.572;10.050;2023-02-28T10:15:18;5.38;;;1.60;;
74471;SDS011;62920;53.572;10.050;2023-02-28T10:17:47;5.05;;;1.98;;
74471;SDS011;62920;53.572;10.050;2023-02-28T10:20:19;5.85;;;2.05;;
74471;SDS011;62920;53.572;10.050;2023-02-28T10:22:53;5.03;;;1.73;;
74471;SDS011;62920;53.572;10.050;2023-02-28T10:25:23;4.40;;;1.80;;
74471;SDS011;62920;53.572;10.050;2023-02-28T10:27:50;6.93;;;2.28;;
74471;SDS011;62920;53.572;10.050;2023-02-28T10:30:18;5.85;;;2.53;;
74471;SDS011;62920;53.572;10.050;2023-02-28T10:32:48;3.35;;;1.60;;
74471;SDS011;62920;53.572;10.050;2023-02-28T10:35:19;5.05;;;2.08;;
74471;SDS011;62920;53.572;10.050;2023-02-28T10:37:48;4.60;;;1.95;;
74471;SDS011;62920;53.572;10.050;2023-02-28T10:40:26;5.22;;;1.85;;
74471;SDS011;62920;53.572;10.050;2023-02-28T10:43:03;4.40;;;1.50;;
74471;SDS011;62920;53.572;10.050;2023-02-28T10:45:33;3.50;;;1.63;;
74471;SDS011;62920;53.572;10.050;2023-02-28T10:53:22;4.03;;;1.40;;
74471;SDS011;62920;53.572;10.050;2023-02-28T10:56:12;3.85;;;1.52;;
74471;SDS011;62920;53.572;10.050;2023-02-28T11:03:48;3.38;;;1.40;;
74471;SDS011;62920;53.572;10.050;2023-02-28T11:06:36;4.63;;;1.98;;
74471;SDS011;62920;53.572;10.050;2023-02-28T11:11:28;4.72;;;1.98;;
74471;SDS011;62920;53.572;10.050;2023-02-28T11:13:57;3.88;;;1.60;;
74471;SDS011;62920;53.572;10.050;2023-02-28T11:16:33;5.32;;;1.95;;
74471;SDS011;62920;53.572;10.050;2023-02-28T11:19:00;4.82;;;2.00;;
74471;SDS011;62920;53.572;10.050;2023-02-28T11:21:27;6.47;;;1.80;;
74471;SDS011;62920;53.572;10.050;2023-02-28T11:26:49;4.18;;;2.15;;
74471;SDS011;62920;53.572;10.050;2023-02-28T11:29:19;3.97;;;1.48;;
74471;SDS011;62920;53.572;10.050;2023-02-28T11:34:34;5.05;;;2.10;;
74471;SDS011;62920;53.572;10.050;2023-02-28T11:37:00;4.03;;;1.85;;
74471;SDS011;62920;53.572;10.050;2023-02-28T11:39:30;4.72;;;1.75;;
74471;SDS011;62920;53.572;10.050;2023-02-28T11:55:32;7.32;;;2.10;;
74471;SDS011;62920;53.572;10.050;2023-02-28T11:58:09;5.20;;;1.90;;
74471;SDS011;62920;53.572;10.050;2023-02-28T12:03:58;7.20;;;1.70;;
74471;SDS011;62920;53.572;10.050;2023-02-28T12:06:46;4.07;;;1.92;;
74471;SDS011;62920;53.572;10.050;2023-02-28T12:09:51;4.05;;;1.90;;
74471;SDS011;62920;53.572;10.050;2023-02-28T12:20:33;5.00;;;1.70;;
74471;SDS011;62920;53.572;10.050;2023-02-28T12:28:25;3.60;;;1.88;;
74471;SDS011;62920;53.572;10.050;2023-02-28T12:31:18;6.07;;;1.65;;
74471;SDS011;62920;53.572;10.050;2023-02-28T12:33:46;7.07;;;1.67;;
74471;SDS011;62920;53.572;10.050;2023-02-28T12:36:16;4.35;;;2.05;;
74471;SDS011;62920;53.572;10.050;2023-02-28T12:38:45;5.00;;;1.90;;
74471;SDS011;62920;53.572;10.050;2023-02-28T12:41:19;5.50;;;1.85;;
74471;SDS011;62920;53.572;10.050;2023-02-28T12:44:11;5.13;;;1.77;;
74471;SDS011;62920;53.572;10.050;2023-02-28T12:46:45;9.15;;;1.50;;
74471;SDS011;62920;53.572;10.050;2023-02-28T12:49:18;5.22;;;2.00;;
74471;SDS011;62920;53.572;10.050;2023-02-28T12:51:46;6.53;;;2.42;;
74471;SDS011;62920;53.572;10.050;2023-02-28T12:54:14;5.38;;;1.80;;
74471;SDS011;62920;53.572;10.050;2023-02-28T12:59:42;5.35;;;1.67;;
74471;SDS011;62920;53.572;10.050;2023-02-28T13:02:17;5.80;;;1.58;;
74471;SDS011;62920;53.572;10.050;2023-02-28T13:10:42;7.18;;;1.95;;
74471;SDS011;62920;53.572;10.050;2023-02-28T13:13:16;4.25;;;1.60;;
74471;SDS011;62920;53.572;10.050;2023-02-28T13:16:03;3.53;;;1.55;;
74471;SDS011;62920;53.572;10.050;2023-02-28T13:21:02;3.10;;;1.67;;
74471;SDS011;62920;53.572;10.050;2023-02-28T13:29:00;5.28;;;1.38;;
74471;SDS011;62920;53.572;10.050;2023-02-28T13:34:34;4.13;;;1.70;;
74471;SDS011;62920;53.572;10.050;2023-02-28T13:37:34;5.05;;;1.63;;
74471;SDS011;62920;53.572;10.050;2023-02-28T13:43:07;6.60;;;1.80;;
74471;SDS011;62920;53.572;10.050;2023-02-28T13:45:37;4.18;;;1.80;;
74471;SDS011;62920;53.572;10.050;2023-02-28T13:48:29;4.50;;;1.55;;
74471;SDS011;62920;53.572;10.050;2023-02-28T13:50:54;3.13;;;1.52;;
74471;SDS011;62920;53.572;10.050;2023-02-28T13:53:29;4.25;;;1.83;;
74471;SDS011;62920;53.572;10.050;2023-02-28T13:58:53;3.55;;;1.80;;
74471;SDS011;62920;53.572;10.050;2023-02-28T14:01:32;3.40;;;1.60;;
74471;SDS011;62920;53.572;10.050;2023-02-28T14:06:51;4.22;;;2.00;;
74471;SDS011;62920;53.572;10.050;2023-02-28T14:11:55;3.90;;;1.70;;
74471;SDS011;62920;53.572;10.050;2023-02-28T14:17:19;4.05;;;1.35;;
74471;SDS011;62920;53.572;10.050;2023-02-28T14:19:45;2.90;;;1.40;;
74471;SDS011;62920;53.572;10.050;2023-02-28T14:27:47;3.80;;;1.67;;
74471;SDS011;62920;53.572;10.050;2023-02-28T14:38:05;4.40;;;1.52;;
74471;SDS011;62920;53.572;10.050;2023-02-28T14:40:33;3.83;;;1.63;;
74471;SDS011;62920;53.572;10.050;2023-02-28T14:43:00;4.93;;;1.60;;
74471;SDS011;62920;53.572;10.050;2023-02-28T14:45:34;3.58;;;1.80;;
74471;SDS011;62920;53.572;10.050;2023-02-28T14:48:01;4.97;;;1.80;;
74471;SDS011;62920;53.572;10.050;2023-02-28T14:50:32;3.63;;;1.58;;
74471;SDS011;62920;53.572;10.050;2023-02-28T14:53:00;4.25;;;1.40;;
74471;SDS011;62920;53.572;10.050;2023-02-28T14:55:26;4.68;;;1.77;;
74471;SDS011;62920;53.572;10.050;2023-02-28T14:57:57;3.08;;;1.50;;
74471;SDS011;62920;53.572;10.050;2023-02-28T15:00:31;3.20;;;1.30;;
74471;SDS011;62920;53.572;10.050;2023-02-28T15:02:58;5.85;;;1.42;;
74471;SDS011;62920;53.572;10.050;2023-02-28T15:05:26;3.58;;;1.50;;
74471;SDS011;62920;53.572;10.050;2023-02-28T15:08:15;4.72;;;1.60;;
74471;SDS011;62920;53.572;10.050;2023-02-28T15:10:42;4.25;;;1.80;;
74471;SDS011;62920;53.572;10.050;2023-02-28T15:13:12;4.05;;;1.77;;
74471;SDS011;62920;53.572;10.050;2023-02-28T15:18:30;4.20;;;1.65;;
74471;SDS011;62920;53.572;10.050;2023-02-28T15:20:59;5.07;;;2.65;;
74471;SDS011;62920;53.572;10.050;2023-02-28T15:23:28;3.97;;;1.70;;
74471;SDS011;62920;53.572;10.050;2023-02-28T15:25:57;4.28;;;1.48;;
74471;SDS011;62920;53.572;10.050;2023-02-28T15:28:23;4.25;;;2.00;;
74471;SDS011;62920;53.572;10.050;2023-02-28T15:31:00;3.35;;;1.55;;
74471;SDS011;62920;53.572;10.050;2023-02-28T15:33:33;4.28;;;1.48;;
74471;SDS011;62920;53.572;10.050;2023-02-28T15:36:18;6.18;;;2.25;;
74471;SDS011;62920;53.572;10.050;2023-02-28T15:38:50;5.18;;;1.63;;
74471;SDS011;62920;53.572;10.050;2023-02-28T15:41:38;5.28;;;1.95;;
74471;SDS011;62920;53.572;10.050;2023-02-28T15:49:20;6.07;;;1.70;;
74471;SDS011;62920;53.572;10.050;2023-02-28T15:51:47;4.40;;;1.42;;
74471;SDS011;62920;53.572;10.050;2023-02-28T15:54:15;4.55;;;1.70;;
74471;SDS011;62920;53.572;10.050;2023-02-28T15:56:46;4.95;;;2.05;;
74471;SDS011;62920;53.572;10.050;2023-02-28T15:59:19;3.75;;;1.42;;
74471;SDS011;62920;53.572;10.050;2023-02-28T16:01:46;3.17;;;1.17;;
74471;SDS011;62920;53.572;10.050;2023-02-28T16:04:14;4.28;;;1.20;;
74471;SDS011;62920;53.572;10.050;2023-02-28T16:06:44;4.32;;;1.67;;
74471;SDS011;62920;53.572;10.050;2023-02-28T16:09:28;4.30;;;1.40;;
74471;SDS011;62920;53.572;10.050;2023-02-28T16:14:23;5.32;;;1.23;;
74471;SDS011;62920;53.572;10.050;2023-02-28T16:16:51;2.97;;;1.15;;
74471;SDS011;62920;53.572;10.050;2023-02-28T16:19:21;3.55;;;1.42;;
74471;SDS011;62920;53.572;10.050;2023-02-28T16:21:47;5.90;;;1.50;;
74471;SDS011;62920;53.572;10.050;2023-02-28T16:24:12;5.43;;;1.30;;
74471;SDS011;62920;53.572;10.050;2023-02-28T16:26:39;3.28;;;1.40;;
74471;SDS011;62920;53.572;10.050;2023-02-28T16:29:06;4.22;;;1.85;;
74471;SDS011;62920;53.572;10.050;2023-02-28T16:31:33;4.65;;;1.38;;
74471;SDS011;62920;53.572;10.050;2023-02-28T16:34:01;3.92;;;1.20;;
74471;SDS011;62920;53.572;10.050;2023-02-28T16:36:26;4.13;;;1.40;;
74471;SDS011;62920;53.572;10.050;2023-02-28T16:38:53;4.07;;;1.45;;
74471;SDS011;62920;53.572;10.050;2023-02-28T16:41:20;3.28;;;1.13;;
74471;SDS011;62920;53.572;10.050;2023-02-28T16:43:48;3.25;;;1.55;;
74471;SDS011;62920;53.572;10.050;2023-02-28T16:46:15;3.53;;;1.40;;
74471;SDS011;62920;53.572;10.050;2023-02-28T16:48:42;3.97;;;1.80;;
74471;SDS011;62920;53.572;10.050;2023-02-28T16:51:11;4.63;;;1.67;;
74471;SDS011;62920;53.572;10.050;2023-02-28T16:53:40;4.20;;;1.23;;
74471;SDS011;62920;53.572;10.050;2023-02-28T16:56:06;4.40;;;1.38;;
74471;SDS011;62920;53.572;10.050;2023-02-28T16:58:40;5.90;;;2.10;;
74471;SDS011;62920;53.572;10.050;2023-02-28T17:01:06;3.80;;;1.73;;
74471;SDS011;62920;53.572;10.050;2023-02-28T17:03:31;3.08;;;1.40;;
74471;SDS011;62920;53.572;10.050;2023-02-28T17:05:57;3.90;;;1.90;;
74471;SDS011;62920;53.572;10.050;2023-02-28T17:08:22;5.53;;;1.90;;
74471;SDS011;62920;53.572;10.050;2023-02-28T17:10:47;6.30;;;2.00;;
74471;SDS011;62920;53.572;10.050;2023-02-28T17:13:13;6.70;;;2.80;;